Campbell AAF (Fort Campbell) Air Field
KHOP : now visible

Airfield :











YOU CAN JOIN US ON...

 
LOGIN :

Register | Disclaimer

   EN    FR    IT 

 









Legend :    VFR   Marginal VFR   IFR   Intensive IFR   Very Intensive IFR
Visi :
Ceiling :
>= 8 km
>= 3000ft
5 to 8 km
1000 to 3000 ft
1500m to 5 km
500 to 1000 ft
800 to 1500m
200 to 500 ft
< 800m
< 200 ft
Symbols :   Thunderstorms  Fog  Heavy snow  Heavy precipitations  Wind > 20 kt






- Airport Elevation : 573 ft


KHOP - Campbell AAF (Fort Campbell) Air Field

CURRENT METAR :
  • 060356Z AUTO 02003KT 10SM CLR 04/M04 A3029 RMK AO2 SLP263 T00401040

EXPIRED METARs :
  • 060256Z AUTO 35006KT 10SM CLR 05/M04 A3027 RMK AO2 SLP256 T00451043 51007
  • 060156Z AUTO 02005KT 10SM FEW160 04/M02 A3026 RMK AO2 SLP253 T00411023

TAF TAF KHOP
Valid from the 06 at 00:00 until the 07 at 06:00 UTC


060000Z 0600/0706 VRB06KT 9999 FEW160 QNH3024INS TX10/0621Z TN00/0612Z
KZME FIR / North America



MET'MAP, your aeronautical weather chart ! - Copyright ORBIFLY December 2007 - Disclaimer

ORBIFLY MET'MAP TEAM :

Programming & Development : Alexandra Zaïnal
Concept & original design : Baudouin d'Aumeries
Assistance for programming : Marc-Olivier Méhu
Technical & hardware support : Manuel Goepfert

Contact : metmap@orbifly.com




SOURCES & CREDITS :

   NOAA       Earth
Advisory